Terminal Aerodrome Forecast
Issued by NWS

Home | Current Version | Previous Version | Text Only | Print | Product List | Glossary On
Versions: 1 2 3 4 5 6 7 8 9 10 11 12 13 14 15
000
FTUS44 KOUN 220520
TAFPNC
TAF
KPNC 220520Z 2206/2306 05009KT 4SM -FZDZ BR OVC008
     FM221600 09005KT 5SM -FZRA OVC008
     FM222200 14007KT P6SM OVC010
     FM230000 13005KT 4SM BR OVC007=

USA.gov is the U.S. government's official web portal to all federal, state and local government web resources and services.